Time;durP1;ratioP1;P1;durP2;ratioP2;P2;SDS_P1;SDS_P2;PMS_P1;PMS_P2;Temp;Humidity;BMP_temperature;BMP_pressure;BME280_temperature;BME280_humidity;BME280_pressure;Samples;Min_cycle;Max_cycle;Signal;HPM_P1;HPM_P2
2023/12/01 00:02:07;;;;;;;8.07;7.30;;;1.10;99.90;;;;;;4981804;28;20050;-79
2023/12/01 00:04:32;;;;;;;9.80;8.87;;;1.10;99.90;;;;;;4971223;28;20458;-85
2023/12/01 00:06:58;;;;;;;8.70;7.90;;;1.10;99.90;;;;;;4962737;28;20398;-81
2023/12/01 00:09:24;;;;;;;7.43;5.67;;;1.10;99.90;;;;;;4972861;28;20444;-79
2023/12/01 00:11:49;;;;;;;9.67;8.77;;;1.10;99.90;;;;;;4963902;28;20520;-77
2023/12/01 00:14:15;;;;;;;11.30;7.20;;;1.10;99.90;;;;;;4963390;28;20419;-83
2023/12/01 00:16:40;;;;;;;14.00;10.30;;;1.10;99.90;;;;;;4960662;28;20061;-79
2023/12/01 00:19:06;;;;;;;7.97;5.97;;;1.10;99.90;;;;;;4962818;28;20053;-85
2023/12/01 00:21:32;;;;;;;9.00;8.33;;;1.10;99.90;;;;;;4978543;28;20045;-84
2023/12/01 00:23:57;;;;;;;10.90;9.73;;;1.10;99.90;;;;;;4980342;28;20598;-80
2023/12/01 00:26:23;;;;;;;10.50;6.03;;;1.10;99.90;;;;;;4980298;28;20034;-85
2023/12/01 00:28:49;;;;;;;7.23;4.97;;;1.10;99.90;;;;;;4947355;28;20144;-81
2023/12/01 00:31:14;;;;;;;7.97;7.27;;;1.00;99.90;;;;;;4962420;28;20346;-81
2023/12/01 00:33:40;;;;;;;8.10;7.40;;;1.00;99.90;;;;;;4964091;28;20046;-85
2023/12/01 00:36:06;;;;;;;5.73;5.30;;;1.00;99.90;;;;;;4979550;28;20045;-81
2023/12/01 00:38:32;;;;;;;5.30;4.97;;;1.00;99.90;;;;;;4981178;28;21415;-82
2023/12/01 00:40:57;;;;;;;10.10;5.37;;;1.00;99.90;;;;;;4969481;28;20038;-85
2023/12/01 00:43:24;;;;;;;5.77;4.63;;;0.90;99.90;;;;;;4964112;28;20389;-80
2023/12/01 00:45:49;;;;;;;7.63;6.33;;;0.90;99.90;;;;;;4968426;28;20055;-79
2023/12/01 00:48:15;;;;;;;10.57;6.53;;;0.90;99.90;;;;;;4966428;28;20040;-76
2023/12/01 00:50:41;;;;;;;7.80;4.90;;;0.90;99.90;;;;;;4980483;28;20650;-81
2023/12/01 00:53:06;;;;;;;6.00;5.50;;;0.90;99.90;;;;;;4962899;28;20048;-80
2023/12/01 00:55:32;;;;;;;7.07;6.17;;;0.90;99.90;;;;;;4980738;28;20396;-81
2023/12/01 00:57:58;;;;;;;7.23;5.83;;;0.90;99.90;;;;;;4967892;28;20058;-81
2023/12/01 01:00:24;;;;;;;6.87;5.60;;;0.90;99.90;;;;;;4961898;28;20142;-81
2023/12/01 01:02:50;;;;;;;8.50;7.23;;;0.90;99.90;;;;;;4974719;28;20177;-75
2023/12/01 01:05:17;;;;;;;9.83;6.87;;;0.90;99.90;;;;;;4978678;28;20046;-81
2023/12/01 01:07:43;;;;;;;15.90;7.97;;;0.90;99.90;;;;;;4968446;28;20034;-79
2023/12/01 01:10:08;;;;;;;9.93;9.03;;;0.90;99.90;;;;;;4970608;28;20046;-85
2023/12/01 01:12:34;;;;;;;7.33;6.63;;;0.90;99.90;;;;;;4978917;28;20121;-81
2023/12/01 01:15:03;;;;;;;6.80;6.23;;;0.90;99.90;;;;;;4979922;28;20046;-80
2023/12/01 01:17:33;;;;;;;8.47;7.40;;;0.90;99.90;;;;;;4971082;28;20466;-79
2023/12/01 01:19:59;;;;;;;7.00;6.33;;;0.90;99.90;;;;;;4960220;28;20105;-82
2023/12/01 01:22:26;;;;;;;7.10;5.80;;;0.90;99.90;;;;;;4993536;28;20085;-85
2023/12/01 01:24:52;;;;;;;16.97;7.27;;;0.90;99.90;;;;;;4985319;28;20034;-82
2023/12/01 01:27:18;;;;;;;8.87;8.03;;;0.80;99.90;;;;;;4972532;28;20043;-86
2023/12/01 01:29:44;;;;;;;8.17;7.37;;;0.90;99.90;;;;;;4971059;28;20306;-86
2023/12/01 01:32:11;;;;;;;7.20;6.60;;;0.90;99.90;;;;;;4957313;28;20042;-81
2023/12/01 01:34:37;;;;;;;8.67;7.87;;;0.80;99.90;;;;;;4976343;28;20060;-85
2023/12/01 01:37:03;;;;;;;5.53;5.03;;;0.80;99.90;;;;;;4976927;28;20038;-81
2023/12/01 01:39:29;;;;;;;7.83;7.13;;;0.80;99.90;;;;;;4960501;28;20097;-80
2023/12/01 01:41:58;;;;;;;7.77;7.07;;;0.80;99.90;;;;;;4972625;28;20464;-85
2023/12/01 01:44:23;;;;;;;10.00;9.20;;;0.80;99.90;;;;;;4966200;28;20034;-81
2023/12/01 01:46:50;;;;;;;9.30;8.33;;;0.80;99.90;;;;;;4956180;28;20382;-76
2023/12/01 01:49:16;;;;;;;9.90;6.27;;;0.80;99.90;;;;;;4980788;28;20042;-84
2023/12/01 01:51:43;;;;;;;6.93;6.47;;;0.80;99.90;;;;;;4985616;28;20489;-82
2023/12/01 01:54:10;;;;;;;8.03;7.33;;;0.80;99.90;;;;;;4969702;28;20410;-81
2023/12/01 01:56:36;;;;;;;8.83;6.70;;;0.80;99.90;;;;;;4988077;28;20041;-79
2023/12/01 01:59:01;;;;;;;9.30;7.67;;;0.80;99.90;;;;;;4991839;28;20054;-81
2023/12/01 02:01:27;;;;;;;12.27;7.43;;;0.80;99.90;;;;;;4967971;28;20493;-85
2023/12/01 02:03:53;;;;;;;9.90;5.33;;;0.70;99.90;;;;;;4987046;28;20042;-79
2023/12/01 02:06:19;;;;;;;10.27;6.33;;;0.70;99.90;;;;;;4996258;28;20502;-81
2023/12/01 02:08:45;;;;;;;7.60;6.97;;;0.70;99.90;;;;;;4974250;28;20420;-81
2023/12/01 02:11:13;;;;;;;7.97;7.13;;;0.70;99.90;;;;;;4986974;28;20252;-81
2023/12/01 02:13:39;;;;;;;8.27;7.43;;;0.70;99.90;;;;;;4976581;28;20046;-83
2023/12/01 02:16:07;;;;;;;7.50;6.57;;;0.70;99.90;;;;;;4981254;28;20065;-85
2023/12/01 02:18:35;;;;;;;6.20;5.70;;;0.60;99.90;;;;;;4970584;28;20382;-79
2023/12/01 02:21:01;;;;;;;8.63;7.77;;;0.60;99.90;;;;;;4962589;28;20035;-82
2023/12/01 02:23:27;;;;;;;11.90;6.03;;;0.70;99.90;;;;;;4950708;28;20039;-74
2023/12/01 02:25:53;;;;;;;9.00;8.20;;;0.60;99.90;;;;;;4988253;28;20073;-79
2023/12/01 02:28:19;;;;;;;8.33;6.27;;;0.60;99.90;;;;;;4966832;28;20038;-86
2023/12/01 02:30:53;;;;;;;7.60;7.03;;;0.60;99.90;;;;;;4976487;28;20053;-80
2023/12/01 02:33:19;;;;;;;6.07;4.90;;;0.60;99.90;;;;;;4975951;28;20049;-85
2023/12/01 02:35:46;;;;;;;8.17;6.60;;;0.60;99.90;;;;;;4983040;28;20042;-86
2023/12/01 02:38:12;;;;;;;12.13;9.07;;;0.60;99.90;;;;;;4983596;28;20089;-79
2023/12/01 02:40:42;;;;;;;5.67;4.60;;;0.60;99.90;;;;;;4982830;28;20089;-75
2023/12/01 02:43:10;;;;;;;8.90;8.07;;;0.60;99.90;;;;;;4980756;28;20056;-84
2023/12/01 02:45:36;;;;;;;7.63;6.97;;;0.60;99.90;;;;;;4963898;28;20326;-86
2023/12/01 02:48:01;;;;;;;8.10;5.73;;;0.60;99.90;;;;;;4963761;28;20054;-81
2023/12/01 02:50:27;;;;;;;7.90;7.27;;;0.60;99.90;;;;;;4995397;28;20405;-82
2023/12/01 02:52:53;;;;;;;7.20;6.63;;;0.50;99.90;;;;;;4995154;28;20062;-80
2023/12/01 02:55:18;;;;;;;8.57;7.73;;;0.50;99.90;;;;;;4948661;28;20133;-83
2023/12/01 02:57:44;;;;;;;13.57;7.23;;;0.40;99.90;;;;;;4983438;28;20814;-84
2023/12/01 03:00:13;;;;;;;11.83;7.33;;;0.40;99.90;;;;;;4965185;28;20042;-86
2023/12/01 03:02:42;;;;;;;9.67;8.80;;;0.30;99.90;;;;;;4983822;28;20042;-78
2023/12/01 03:05:09;;;;;;;9.23;8.33;;;0.30;99.90;;;;;;4975532;28;20041;-82
2023/12/01 03:07:38;;;;;;;8.03;7.20;;;0.30;99.90;;;;;;4963126;28;20026;-87
2023/12/01 03:10:07;;;;;;;10.20;8.07;;;0.20;99.90;;;;;;4975849;28;20619;-82
2023/12/01 03:12:35;;;;;;;9.60;8.67;;;0.20;99.90;;;;;;4981386;28;20146;-82
2023/12/01 03:15:00;;;;;;;7.07;6.47;;;0.10;99.90;;;;;;4967594;28;20047;-81
2023/12/01 03:17:26;;;;;;;14.63;8.40;;;0.10;99.90;;;;;;4982104;28;20038;-86
2023/12/01 03:19:52;;;;;;;8.57;7.77;;;0.00;99.90;;;;;;4979615;28;20046;-75
2023/12/01 03:22:18;;;;;;;10.80;9.70;;;0.00;99.90;;;;;;4967645;28;20445;-79
2023/12/01 03:24:47;;;;;;;9.10;8.37;;;-0.10;99.90;;;;;;4976469;28;20125;-81
2023/12/01 03:27:14;;;;;;;7.13;6.67;;;-0.10;99.90;;;;;;4989680;28;20082;-84
2023/12/01 03:29:40;;;;;;;8.43;6.03;;;-0.20;99.90;;;;;;4951692;28;20385;-78
2023/12/01 03:32:06;;;;;;;7.43;6.83;;;-0.30;99.90;;;;;;4984817;28;20034;-79
2023/12/01 03:34:31;;;;;;;9.23;8.63;;;-0.30;99.90;;;;;;4990591;28;20053;-82
2023/12/01 03:36:57;;;;;;;7.53;5.37;;;-0.30;99.90;;;;;;4979416;28;20043;-82
2023/12/01 03:39:22;;;;;;;11.90;7.73;;;-0.30;99.90;;;;;;4963825;28;20137;-82
2023/12/01 03:41:48;;;;;;;10.93;9.70;;;-0.30;99.90;;;;;;4983314;28;20048;-87
2023/12/01 03:44:15;;;;;;;9.03;7.97;;;-0.40;99.90;;;;;;4972158;28;20218;-84
2023/12/01 03:46:40;;;;;;;7.53;6.93;;;-0.40;99.90;;;;;;4979390;28;20039;-80
2023/12/01 03:49:06;;;;;;;11.73;8.30;;;-0.30;99.90;;;;;;4975097;28;20486;-81
2023/12/01 03:51:32;;;;;;;12.03;8.03;;;-0.30;99.90;;;;;;4945042;28;20047;-80
2023/12/01 03:53:57;;;;;;;12.50;7.90;;;-0.30;99.90;;;;;;4962388;28;20053;-85
2023/12/01 03:56:23;;;;;;;17.97;9.57;;;-0.30;99.90;;;;;;4976468;28;20132;-84
2023/12/01 03:58:54;;;;;;;6.57;5.83;;;-0.30;99.90;;;;;;4981368;28;20061;-87
2023/12/01 04:01:20;;;;;;;6.47;6.00;;;-0.30;99.90;;;;;;4979517;28;20374;-80
2023/12/01 04:03:46;;;;;;;7.17;6.67;;;-0.30;99.90;;;;;;4960331;28;20520;-82
2023/12/01 04:06:11;;;;;;;7.37;6.67;;;-0.30;99.90;;;;;;4985781;28;20054;-87
2023/12/01 04:08:37;;;;;;;8.80;8.17;;;-0.40;99.90;;;;;;4981168;28;20249;-87
2023/12/01 04:11:03;;;;;;;21.77;10.27;;;-0.40;99.90;;;;;;4981547;28;20039;-82
2023/12/01 04:13:29;;;;;;;6.03;5.43;;;-0.40;99.90;;;;;;4972259;28;20038;-82
2023/12/01 04:15:55;;;;;;;7.60;6.63;;;-0.50;99.90;;;;;;4979628;28;20125;-80
2023/12/01 04:18:21;;;;;;;10.83;8.13;;;-0.50;99.90;;;;;;4968080;28;20047;-75
2023/12/01 04:20:47;;;;;;;6.63;6.03;;;-0.50;99.90;;;;;;4963373;28;20485;-87
2023/12/01 04:23:14;;;;;;;7.43;6.77;;;-0.60;99.90;;;;;;4977524;28;20069;-87
2023/12/01 04:25:45;;;;;;;13.47;7.50;;;-0.60;99.90;;;;;;4962809;28;20046;-83
2023/12/01 04:28:10;;;;;;;7.00;6.37;;;-0.60;99.90;;;;;;4985424;28;20035;-80
2023/12/01 04:30:36;;;;;;;8.70;7.90;;;-0.60;99.90;;;;;;4970212;28;20054;-87
2023/12/01 04:33:02;;;;;;;13.07;6.97;;;-0.60;99.90;;;;;;4975605;28;20479;-83
2023/12/01 04:35:30;;;;;;;7.07;6.33;;;-0.60;99.90;;;;;;4999546;28;20045;-82
2023/12/01 04:37:56;;;;;;;10.60;7.97;;;-0.70;99.90;;;;;;4990014;28;20338;-82
2023/12/01 04:40:23;;;;;;;7.33;6.17;;;-0.70;99.90;;;;;;4974850;28;20520;-82
2023/12/01 04:42:51;;;;;;;15.23;5.77;;;-0.70;99.90;;;;;;4981827;28;20496;-76
2023/12/01 04:45:21;;;;;;;8.97;7.97;;;-0.70;99.90;;;;;;4963217;28;20435;-84
2023/12/01 04:47:51;;;;;;;9.10;6.93;;;-0.70;99.90;;;;;;4968865;28;20039;-83
2023/12/01 04:50:18;;;;;;;11.20;6.53;;;-0.80;99.90;;;;;;4969344;28;20459;-86
2023/12/01 04:52:46;;;;;;;23.70;8.67;;;-0.80;99.90;;;;;;4971767;28;20501;-87
2023/12/01 04:55:14;;;;;;;6.67;6.07;;;-0.80;99.90;;;;;;4979530;28;20057;-82
2023/12/01 04:57:43;;;;;;;7.77;6.80;;;-0.80;99.90;;;;;;4979470;28;20693;-82
2023/12/01 05:00:25;;;;;;;12.47;7.60;;;-0.90;99.90;;;;;;4955360;28;20043;-85
2023/12/01 05:03:05;;;;;;;6.82;6.32;;;-0.90;99.90;;;;;;4977000;28;20054;-80
2023/12/01 05:05:32;;;;;;;7.97;5.27;;;-0.90;99.90;;;;;;4983989;28;20376;-75
2023/12/01 05:08:00;;;;;;;6.43;6.00;;;-1.00;99.90;;;;;;4962437;28;20035;-86
2023/12/01 05:10:28;;;;;;;9.30;6.97;;;-1.00;99.90;;;;;;4975772;28;20045;-86
2023/12/01 05:12:56;;;;;;;5.43;5.10;;;-1.00;99.90;;;;;;4969089;28;20496;-80
2023/12/01 05:15:24;;;;;;;7.90;7.13;;;-1.00;99.90;;;;;;4961752;28;20069;-75
2023/12/01 05:17:55;;;;;;;8.40;6.13;;;-1.00;99.90;;;;;;4965556;28;20046;-77
2023/12/01 05:20:23;;;;;;;3.67;3.47;;;-1.00;99.90;;;;;;4989175;28;20411;-82
2023/12/01 05:22:56;;;;;;;5.83;5.43;;;-1.10;99.90;;;;;;4982095;28;20050;-85
2023/12/01 05:25:25;;;;;;;6.67;6.17;;;-1.10;99.90;;;;;;4982044;28;20061;-89
2023/12/01 05:27:54;;;;;;;6.97;6.50;;;-1.10;99.90;;;;;;4980900;28;20050;-83
2023/12/01 05:30:27;;;;;;;5.93;5.00;;;-1.20;99.90;;;;;;4973968;28;20049;-77
2023/12/01 05:32:53;;;;;;;4.20;3.90;;;-1.20;99.90;;;;;;4975631;28;20501;-84
2023/12/01 05:35:20;;;;;;;8.27;7.03;;;-1.20;99.90;;;;;;4961878;28;20077;-83
2023/12/01 05:37:51;;;;;;;9.73;8.37;;;-1.20;99.90;;;;;;4971893;28;20066;-83
2023/12/01 05:40:23;;;;;;;5.33;4.97;;;-1.20;99.90;;;;;;4989868;28;20034;-86
2023/12/01 05:42:52;;;;;;;7.47;6.13;;;-1.30;99.90;;;;;;4965024;28;20058;-76
2023/12/01 05:45:20;;;;;;;7.03;6.37;;;-1.30;99.90;;;;;;4976449;28;20050;-79
2023/12/01 05:47:46;;;;;;;5.40;4.47;;;-1.30;99.90;;;;;;4961602;28;20133;-83
2023/12/01 05:50:20;;;;;;;5.40;5.00;;;-1.30;99.90;;;;;;4993054;28;20052;-89
2023/12/01 05:52:46;;;;;;;6.60;4.70;;;-1.40;99.90;;;;;;4968317;28;20053;-80
2023/12/01 05:55:17;;;;;;;6.03;5.07;;;-1.40;99.90;;;;;;4979338;28;20069;-88
2023/12/01 05:57:42;;;;;;;5.63;5.13;;;-1.40;99.90;;;;;;4981201;28;20117;-87
2023/12/01 06:00:12;;;;;;;9.77;6.93;;;-1.40;99.90;;;;;;4975273;28;20485;-83
2023/12/01 06:02:40;;;;;;;5.20;3.73;;;-1.50;99.90;;;;;;4944065;28;20043;-83
2023/12/01 06:05:06;;;;;;;6.17;5.67;;;-1.50;99.90;;;;;;4980968;28;20289;-92
2023/12/01 06:07:32;;;;;;;3.90;3.70;;;-1.50;99.90;;;;;;4979420;28;20038;-83
2023/12/01 06:09:58;;;;;;;8.77;4.70;;;-1.50;99.90;;;;;;4974201;28;20552;-86
2023/12/01 06:12:24;;;;;;;3.70;3.40;;;-1.60;99.90;;;;;;4963459;28;20050;-82
2023/12/01 06:14:49;;;;;;;3.37;3.17;;;-1.60;99.90;;;;;;4962867;28;20050;-78
2023/12/01 06:17:15;;;;;;;4.50;4.20;;;-1.60;99.90;;;;;;4980472;28;20046;-92
2023/12/01 06:19:40;;;;;;;8.93;4.23;;;-1.60;99.90;;;;;;4971291;28;20038;-94
2023/12/01 06:22:07;;;;;;;7.60;4.43;;;-1.70;99.90;;;;;;4983810;28;20046;-90
2023/12/01 06:24:33;;;;;;;3.37;3.17;;;-1.70;99.90;;;;;;4980484;28;20046;-83
2023/12/01 06:27:03;;;;;;;3.67;3.20;;;-1.70;99.90;;;;;;4978707;28;20179;-86
2023/12/01 06:29:29;;;;;;;4.93;4.37;;;-1.80;99.90;;;;;;4983032;28;20038;-95
2023/12/01 06:31:56;;;;;;;6.43;5.83;;;-1.80;99.90;;;;;;4975971;28;20097;-93
2023/12/01 06:34:21;;;;;;;6.13;5.50;;;-1.80;99.90;;;;;;4963802;28;20054;-86
2023/12/01 06:36:47;;;;;;;3.93;3.73;;;-1.80;99.90;;;;;;4961280;28;20041;-83
2023/12/01 06:39:13;;;;;;;8.37;5.43;;;-1.80;99.90;;;;;;4975913;28;20055;-85
2023/12/01 06:41:41;;;;;;;7.50;5.30;;;-1.80;99.90;;;;;;4992584;28;20611;-79
2023/12/01 06:44:07;;;;;;;4.90;4.60;;;-1.80;99.90;;;;;;4982772;28;20088;-91
2023/12/01 06:46:32;;;;;;;18.87;10.23;;;-1.80;99.90;;;;;;4993491;28;20042;-83
2023/12/01 06:48:59;;;;;;;8.40;7.53;;;-1.80;99.90;;;;;;4980066;28;20038;-79
2023/12/01 06:51:24;;;;;;;13.93;8.20;;;-1.80;99.90;;;;;;4970321;28;20069;-79
2023/12/01 06:53:50;;;;;;;10.50;7.97;;;-1.80;99.90;;;;;;4979822;28;20424;-79
2023/12/01 06:56:16;;;;;;;9.07;8.17;;;-1.80;99.90;;;;;;4982395;28;20037;-84
2023/12/01 06:58:41;;;;;;;6.97;6.33;;;-1.80;99.90;;;;;;4987641;28;20428;-83
2023/12/01 07:01:07;;;;;;;9.17;8.00;;;-1.80;99.90;;;;;;4988608;28;20124;-79
2023/12/01 07:03:32;;;;;;;5.77;4.83;;;-1.80;99.90;;;;;;4982072;28;20345;-79
2023/12/01 07:05:58;;;;;;;6.73;6.10;;;-1.70;99.90;;;;;;4985637;28;20045;-80
2023/12/01 07:08:23;;;;;;;7.10;6.67;;;-1.70;99.90;;;;;;4981340;28;20054;-80
2023/12/01 07:10:49;;;;;;;5.67;5.10;;;-1.70;99.90;;;;;;4981492;28;20046;-77
2023/12/01 07:13:16;;;;;;;7.20;6.67;;;-1.70;99.90;;;;;;4981950;28;20528;-78
2023/12/01 07:15:41;;;;;;;6.23;5.73;;;-1.70;99.90;;;;;;4981894;28;20051;-84
2023/12/01 07:18:09;;;;;;;5.93;5.43;;;-1.70;99.90;;;;;;4985898;28;20054;-84
2023/12/01 07:20:34;;;;;;;5.13;4.73;;;-1.80;99.90;;;;;;4983367;28;20052;-84
2023/12/01 07:23:00;;;;;;;5.47;5.13;;;-1.80;99.90;;;;;;4982041;28;20050;-85
2023/12/01 07:25:26;;;;;;;6.17;5.73;;;-1.70;99.90;;;;;;4982589;28;20615;-82
2023/12/01 07:28:00;;;;;;;8.13;4.87;;;-1.80;99.90;;;;;;4982380;28;20117;-83
2023/12/01 07:30:27;;;;;;;8.53;4.93;;;-1.80;99.90;;;;;;4982655;28;20322;-90
2023/12/01 07:32:53;;;;;;;9.57;8.77;;;-1.80;99.90;;;;;;4984161;28;20493;-88
2023/12/01 07:35:18;;;;;;;11.33;8.23;;;-1.80;99.90;;;;;;4991804;28;20035;-87
2023/12/01 07:37:47;;;;;;;7.37;6.67;;;-1.80;99.90;;;;;;4981355;28;20433;-78
2023/12/01 07:40:19;;;;;;;6.90;6.40;;;-1.80;99.90;;;;;;4964668;28;20428;-85
2023/12/01 07:42:49;;;;;;;6.90;6.40;;;-1.80;99.90;;;;;;4981889;28;20249;-82
2023/12/01 07:45:17;;;;;;;6.87;6.37;;;-1.80;99.90;;;;;;4981690;28;20045;-84
2023/12/01 07:47:47;;;;;;;10.47;6.50;;;-1.80;99.90;;;;;;4983157;28;20100;-91
2023/12/01 07:50:14;;;;;;;8.00;7.27;;;-1.80;99.90;;;;;;4964121;28;20796;-87
2023/12/01 07:52:42;;;;;;;7.17;6.70;;;-1.80;99.90;;;;;;4962685;28;20046;-92
2023/12/01 07:55:09;;;;;;;12.80;7.50;;;-1.70;99.90;;;;;;4991268;28;20357;-82
2023/12/01 07:57:35;;;;;;;10.00;9.13;;;-1.70;99.90;;;;;;5002154;28;20073;-79
2023/12/01 08:00:01;;;;;;;8.43;6.17;;;-1.70;99.90;;;;;;4981837;28;20048;-83
2023/12/01 08:02:27;;;;;;;9.73;8.73;;;-1.70;99.90;;;;;;4982599;28;20052;-82
2023/12/01 08:04:53;;;;;;;16.97;6.67;;;-1.70;99.90;;;;;;4972045;28;20446;-86
2023/12/01 08:07:18;;;;;;;9.00;7.93;;;-1.70;99.90;;;;;;5002448;28;20038;-78
2023/12/01 08:09:44;;;;;;;14.07;7.97;;;-1.60;99.90;;;;;;4982781;28;20389;-89
2023/12/01 08:12:09;;;;;;;8.33;7.50;;;-1.60;99.90;;;;;;4989058;28;20132;-84
2023/12/01 08:14:35;;;;;;;9.13;8.37;;;-1.70;99.90;;;;;;4989288;28;20050;-92
2023/12/01 08:17:01;;;;;;;7.77;7.20;;;-1.70;99.90;;;;;;4964712;28;20603;-92
2023/12/01 08:19:27;;;;;;;13.87;10.07;;;-1.70;99.90;;;;;;4965349;28;20038;-92
2023/12/01 08:21:53;;;;;;;13.93;8.60;;;-1.70;99.90;;;;;;4991335;28;20282;-82
2023/12/01 08:24:20;;;;;;;29.90;9.00;;;-1.70;99.90;;;;;;4994404;28;20503;-84
2023/12/01 08:26:46;;;;;;;7.93;7.17;;;-1.60;99.90;;;;;;4981775;28;20049;-86
2023/12/01 08:29:12;;;;;;;6.70;6.07;;;-1.60;99.90;;;;;;4967743;28;20057;-84
2023/12/01 08:31:39;;;;;;;15.13;9.00;;;-1.60;99.90;;;;;;4987561;28;20042;-86
2023/12/01 08:34:08;;;;;;;6.97;6.50;;;-1.50;99.90;;;;;;4997345;28;20068;-90
2023/12/01 08:36:34;;;;;;;7.17;6.60;;;-1.50;99.90;;;;;;4986018;28;20658;-85
2023/12/01 08:39:00;;;;;;;8.90;6.87;;;-1.50;99.90;;;;;;4983404;28;20500;-87
2023/12/01 08:41:26;;;;;;;15.80;11.50;;;-1.40;99.90;;;;;;4981406;28;20050;-85
2023/12/01 08:43:51;;;;;;;6.07;5.67;;;-1.40;99.90;;;;;;4981659;28;20627;-81
2023/12/01 08:46:17;;;;;;;13.67;6.83;;;-1.40;99.90;;;;;;4974752;28;20133;-79
2023/12/01 08:48:43;;;;;;;10.23;9.30;;;-1.30;99.90;;;;;;4972268;28;20108;-85
2023/12/01 08:51:08;;;;;;;7.30;6.67;;;-1.30;99.90;;;;;;4980791;28;20117;-81
2023/12/01 08:53:34;;;;;;;8.03;7.43;;;-1.30;99.90;;;;;;4980536;28;20525;-78
2023/12/01 08:55:59;;;;;;;9.97;8.50;;;-1.30;99.90;;;;;;4981257;28;20065;-87
2023/12/01 08:58:25;;;;;;;7.23;6.73;;;-1.20;99.90;;;;;;4981936;28;20567;-86
2023/12/01 09:00:51;;;;;;;10.73;9.83;;;-1.20;99.90;;;;;;4983302;28;20129;-79
2023/12/01 09:03:16;;;;;;;9.40;8.47;;;-1.20;99.90;;;;;;4979383;28;20035;-91
2023/12/01 09:05:42;;;;;;;10.87;8.10;;;-1.20;99.90;;;;;;4977962;28;20378;-89
2023/12/01 09:08:08;;;;;;;8.40;6.37;;;-1.20;99.90;;;;;;4979476;28;20069;-83
2023/12/01 09:10:33;;;;;;;7.60;6.87;;;-1.10;99.90;;;;;;4979866;28;20056;-82
2023/12/01 09:12:59;;;;;;;5.27;4.77;;;-1.10;99.90;;;;;;4980207;28;20039;-83
2023/12/01 09:15:25;;;;;;;16.93;8.70;;;-1.00;99.90;;;;;;4961824;28;20070;-81
2023/12/01 09:17:54;;;;;;;7.90;5.97;;;-1.00;99.90;;;;;;4981751;28;20050;-82
2023/12/01 09:20:20;;;;;;;9.83;8.97;;;-1.00;99.90;;;;;;4979786;28;20081;-78
2023/12/01 09:22:46;;;;;;;15.80;7.90;;;-0.90;99.90;;;;;;4981704;28;20507;-93
2023/12/01 09:25:12;;;;;;;14.00;9.00;;;-0.90;99.90;;;;;;4980456;28;20507;-93
2023/12/01 09:27:37;;;;;;;9.20;6.87;;;-0.90;99.90;;;;;;4981442;28;20038;-92
2023/12/01 09:30:04;;;;;;;17.17;11.07;;;-0.90;99.90;;;;;;4964086;28;20151;-88
2023/12/01 09:32:30;;;;;;;11.37;10.40;;;-0.90;99.90;;;;;;4980148;28;20046;-84
2023/12/01 09:34:55;;;;;;;12.53;9.07;;;-0.80;99.90;;;;;;4979389;28;20440;-85
2023/12/01 09:37:23;;;;;;;4.20;3.83;;;-0.80;99.90;;;;;;4979670;28;20039;-83
2023/12/01 09:39:49;;;;;;;11.13;5.90;;;-0.80;99.90;;;;;;4980976;28;20048;-79
2023/12/01 09:42:16;;;;;;;10.87;9.70;;;-0.80;99.90;;;;;;4982259;28;20033;-88
2023/12/01 09:44:43;;;;;;;8.17;7.37;;;-0.70;99.90;;;;;;4980277;28;20057;-92
2023/12/01 09:47:12;;;;;;;16.47;7.53;;;-0.80;99.90;;;;;;4992701;28;20049;-91
2023/12/01 09:49:38;;;;;;;11.50;9.23;;;-0.90;99.90;;;;;;4980695;28;20293;-84
2023/12/01 09:52:05;;;;;;;7.70;6.70;;;-0.80;99.90;;;;;;4971254;28;20485;-79
2023/12/01 09:54:31;;;;;;;7.43;6.83;;;-0.80;99.90;;;;;;4960274;28;20057;-85
2023/12/01 09:57:06;;;;;;;7.83;6.73;;;-0.80;99.90;;;;;;4943818;28;20503;-82
2023/12/01 09:59:36;;;;;;;12.67;6.17;;;-0.80;99.90;;;;;;4959759;28;20062;-90
2023/12/01 10:02:03;;;;;;;9.47;7.00;;;-0.70;99.90;;;;;;4960419;28;20051;-83
2023/12/01 10:04:32;;;;;;;10.60;7.03;;;-0.70;99.90;;;;;;4963229;28;20050;-89
2023/12/01 10:07:00;;;;;;;6.97;5.90;;;-0.60;99.90;;;;;;4962060;28;20034;-84
2023/12/01 10:09:30;;;;;;;10.67;6.37;;;-0.60;99.90;;;;;;4964339;28;20046;-90
2023/12/01 10:12:08;;;;;;;11.05;7.20;;;-0.60;99.90;;;;;;4993296;28;20050;-86
2023/12/01 10:14:37;;;;;;;12.87;5.40;;;-0.60;99.90;;;;;;4979782;28;20085;-88
2023/12/01 10:17:04;;;;;;;7.37;6.77;;;-0.70;99.90;;;;;;4989946;28;20516;-78
2023/12/01 10:19:42;;;;;;;12.77;8.13;;;-0.60;99.90;;;;;;4986692;28;20050;-93
2023/12/01 10:22:09;;;;;;;8.53;7.73;;;-0.60;99.90;;;;;;4963715;28;20065;-82
2023/12/01 10:24:35;;;;;;;7.40;6.70;;;-0.60;99.90;;;;;;4985806;28;20046;-91
2023/12/01 10:27:04;;;;;;;8.20;7.50;;;-0.60;99.90;;;;;;5001210;28;20374;-89
2023/12/01 10:29:32;;;;;;;8.30;7.70;;;-0.50;99.90;;;;;;4981170;28;20588;-86
2023/12/01 10:32:02;;;;;;;7.73;7.03;;;-0.50;99.90;;;;;;4965425;28;20058;-87
2023/12/01 10:34:28;;;;;;;6.40;5.87;;;-0.50;99.90;;;;;;4976376;28;20047;-82
2023/12/01 10:36:55;;;;;;;12.53;8.33;;;-0.50;99.90;;;;;;4963858;28;20053;-80
2023/12/01 10:39:27;;;;;;;3.70;3.57;;;-0.50;99.90;;;;;;4962889;28;20102;-77
2023/12/01 10:41:53;;;;;;;11.27;8.27;;;-0.50;99.90;;;;;;4975109;28;20450;-79
2023/12/01 10:44:23;;;;;;;8.97;8.27;;;-0.40;99.90;;;;;;4983286;28;20129;-78
2023/12/01 10:46:49;;;;;;;9.43;6.10;;;-0.50;99.90;;;;;;4985579;28;20042;-87
2023/12/01 10:49:18;;;;;;;6.37;5.77;;;-0.50;99.90;;;;;;5002242;28;20042;-85
2023/12/01 10:51:52;;;;;;;11.53;8.17;;;-0.50;99.90;;;;;;5002245;28;20085;-93
2023/12/01 10:54:21;;;;;;;12.33;11.10;;;-0.40;99.90;;;;;;4976903;28;20281;-83
2023/12/01 10:56:56;;;;;;;13.80;12.73;;;-0.50;99.90;;;;;;5001753;28;20176;-82
2023/12/01 10:59:24;;;;;;;12.40;7.53;;;-0.40;99.90;;;;;;4999699;28;20551;-90
2023/12/01 11:01:52;;;;;;;19.53;9.03;;;-0.50;99.90;;;;;;5002563;28;20049;-85
2023/12/01 11:04:26;;;;;;;9.50;7.17;;;-0.40;99.90;;;;;;4989460;28;20088;-81
2023/12/01 11:07:20;;;;;;;9.83;7.10;;;-0.50;99.90;;;;;;4981594;28;20081;-86
2023/12/01 11:09:59;;;;;;;12.53;7.70;;;-0.40;99.90;;;;;;4964116;28;20358;-89
2023/12/01 11:12:25;;;;;;;9.07;7.70;;;-0.40;99.90;;;;;;4964769;28;20096;-86
2023/12/01 11:14:52;;;;;;;8.90;8.27;;;-0.40;99.90;;;;;;4980071;28;20463;-85
2023/12/01 11:17:18;;;;;;;12.80;8.30;;;-0.40;99.90;;;;;;4981334;28;20054;-88
2023/12/01 11:19:44;;;;;;;8.97;7.60;;;-0.40;99.90;;;;;;4986792;28;20034;-82
2023/12/01 11:22:32;;;;;;;8.13;6.20;;;-0.40;99.90;;;;;;4981302;28;20655;-86
2023/12/01 11:24:58;;;;;;;11.80;9.23;;;-0.40;99.90;;;;;;4975354;28;20431;-86
2023/12/01 11:27:25;;;;;;;10.40;7.27;;;-0.40;99.90;;;;;;4970968;28;20058;-80
2023/12/01 11:29:58;;;;;;;9.80;7.07;;;-0.30;99.90;;;;;;4967704;28;20099;-79
2023/12/01 11:32:38;;;;;;;8.53;7.93;;;-0.40;99.90;;;;;;4980774;28;20101;-82
2023/12/01 11:35:09;;;;;;;6.23;5.57;;;-0.30;99.90;;;;;;4981807;28;20219;-79
2023/12/01 11:38:04;;;;;;;8.60;7.87;;;-0.30;99.90;;;;;;4966230;28;20043;-80
2023/12/01 11:40:39;;;;;;;9.60;6.33;;;-0.30;99.90;;;;;;4981182;28;20552;-82
2023/12/01 11:43:08;;;;;;;6.20;5.67;;;-0.30;99.90;;;;;;4977448;28;20046;-79
2023/12/01 11:45:37;;;;;;;15.13;8.70;;;-0.30;99.90;;;;;;4973676;28;20389;-81
2023/12/01 11:48:09;;;;;;;7.43;6.80;;;-0.30;99.90;;;;;;4977392;28;20138;-83
2023/12/01 11:50:37;;;;;;;7.03;6.53;;;-0.30;99.90;;;;;;4972406;28;20380;-79
2023/12/01 11:53:03;;;;;;;9.47;7.97;;;-0.30;99.90;;;;;;4980023;28;20053;-79
2023/12/01 11:55:29;;;;;;;10.67;9.63;;;-0.30;99.90;;;;;;4975072;28;20042;-77
2023/12/01 11:57:54;;;;;;;6.93;6.27;;;-0.30;99.90;;;;;;4967396;28;20059;-82
2023/12/01 12:00:20;;;;;;;10.23;9.03;;;-0.30;99.90;;;;;;4964298;28;20042;-82
2023/12/01 12:02:46;;;;;;;12.77;8.17;;;-0.20;99.90;;;;;;4981320;28;20062;-82
2023/12/01 12:05:12;;;;;;;5.27;4.77;;;-0.20;99.90;;;;;;4982965;28;20688;-82
2023/12/01 12:07:38;;;;;;;5.50;5.13;;;-0.20;99.90;;;;;;4978110;28;20081;-79
2023/12/01 12:10:06;;;;;;;9.83;7.10;;;-0.20;99.90;;;;;;4972234;28;20486;-78
2023/12/01 12:12:32;;;;;;;4.37;4.07;;;-0.20;99.90;;;;;;4980131;28;20042;-78
2023/12/01 12:15:05;;;;;;;11.67;6.70;;;-0.20;99.90;;;;;;4963038;28;20057;-80
2023/12/01 12:17:31;;;;;;;14.00;6.83;;;-0.20;99.90;;;;;;4963538;28;20042;-77
2023/12/01 12:19:58;;;;;;;11.40;8.00;;;-0.20;99.90;;;;;;4981290;28;20034;-81
2023/12/01 12:22:24;;;;;;;8.33;7.63;;;-0.10;99.90;;;;;;4964055;28;20105;-76
2023/12/01 12:24:51;;;;;;;10.60;9.50;;;-0.10;99.90;;;;;;4973254;28;20038;-78
2023/12/01 12:27:17;;;;;;;10.13;9.13;;;-0.10;99.90;;;;;;4964497;28;20053;-81
2023/12/01 12:29:43;;;;;;;8.93;6.33;;;-0.10;99.90;;;;;;4979468;28;20054;-80
2023/12/01 12:32:09;;;;;;;8.17;6.77;;;0.00;99.90;;;;;;4979887;28;20261;-81
2023/12/01 12:34:34;;;;;;;9.10;7.53;;;0.00;99.90;;;;;;4979974;28;20047;-78
2023/12/01 12:37:00;;;;;;;11.80;9.10;;;0.00;99.90;;;;;;4963662;28;20085;-81
2023/12/01 12:39:30;;;;;;;10.40;9.53;;;0.00;99.90;;;;;;4979797;28;20557;-83
2023/12/01 12:41:59;;;;;;;9.03;5.90;;;0.00;99.90;;;;;;4979956;28;20042;-75
2023/12/01 12:44:29;;;;;;;9.23;6.43;;;-0.10;99.90;;;;;;4979706;28;20074;-81
2023/12/01 12:47:01;;;;;;;9.00;8.10;;;-0.10;99.90;;;;;;4979643;28;20089;-81